Time;durP1;ratioP1;P1;durP2;ratioP2;P2;SDS_P1;SDS_P2;PMS_P1;PMS_P2;Temp;Humidity;BMP_temperature;BMP_pressure;BME280_temperature;BME280_humidity;BME280_pressure;Samples;Min_cycle;Max_cycle;Signal;HPM_P1;HPM_P2
2022/11/04 00:00:23;;;;;;;109.70;59.15;;;;;;;15.81;85.67;100255.00;4904216;29;20215;-84
2022/11/04 00:02:55;;;;;;;105.43;57.00;;;;;;;15.39;84.91;100170.66;4888029;29;20183;-87
2022/11/04 00:05:23;;;;;;;106.57;56.03;;;;;;;15.78;83.89;100209.03;4903315;29;20525;-86
2022/11/04 00:13:34;;;;;;;99.07;53.97;;;;;;;15.70;85.13;100212.56;4903624;29;20390;-85
2022/11/04 00:18:54;;;;;;;86.90;48.00;;;;;;;15.13;85.41;100089.97;4891644;29;20060;-86
2022/11/04 00:29:41;;;;;;;79.45;44.30;;;;;;;15.39;85.21;100102.97;4887485;29;20059;-87
2022/11/04 00:34:56;;;;;;;81.05;43.58;;;;;;;15.69;86.13;100121.75;4882222;29;20446;-85
2022/11/04 00:37:23;;;;;;;73.00;42.08;;;;;;;15.58;85.67;100106.97;4879370;29;20048;-84
2022/11/04 00:39:50;;;;;;;69.15;38.13;;;;;;;15.51;85.24;100085.47;4866741;29;20074;-84
2022/11/04 00:42:16;;;;;;;66.30;38.85;;;;;;;15.76;85.68;100122.72;4879702;29;20155;-84
2022/11/04 00:44:43;;;;;;;65.90;36.35;;;;;;;15.39;84.82;100055.66;4878582;29;20056;-84
2022/11/04 00:47:12;;;;;;;57.55;31.45;;;;;;;15.74;85.29;100101.50;4882680;29;20168;-81
2022/11/04 00:49:38;;;;;;;53.88;31.38;;;;;;;15.80;84.79;100107.94;4901127;29;20454;-84
2022/11/04 00:52:06;;;;;;;42.60;28.30;;;;;;;16.10;84.84;100148.16;4879067;29;20638;-85
2022/11/04 00:54:33;;;;;;;42.40;25.10;;;;;;;15.66;84.46;100079.31;4881560;29;20067;-85
2022/11/04 00:57:04;;;;;;;45.03;25.20;;;;;;;15.42;84.58;100034.91;4900860;29;20063;-86
2022/11/04 00:59:32;;;;;;;40.05;25.30;;;;;;;16.58;84.90;100229.00;4882328;29;20123;-87
2022/11/04 01:01:59;;;;;;;35.88;24.17;;;;;;;16.58;84.68;100212.94;4878995;29;20323;-85
2022/11/04 01:04:26;;;;;;;38.25;25.00;;;;;;;16.64;85.01;100204.97;4879582;29;20283;-84
2022/11/04 01:06:52;;;;;;;40.05;24.63;;;;;;;15.50;84.30;100010.75;4880874;29;20070;-86
2022/11/04 01:09:19;;;;;;;41.15;25.90;;;;;;;15.66;84.77;100033.84;4880694;29;20218;-82
2022/11/04 01:11:46;;;;;;;38.38;25.55;;;;;;;16.57;84.49;100165.69;4882782;29;20058;-84
2022/11/04 01:14:13;;;;;;;39.97;25.20;;;;;;;16.75;83.17;100168.84;4901357;29;20871;-83
2022/11/04 01:16:40;;;;;;;43.05;24.63;;;;;;;16.40;83.67;100125.69;4875134;29;20063;-84
2022/11/04 01:19:17;;;;;;;43.97;25.35;;;;;;;16.65;83.89;100173.63;4878650;29;20613;-84
2022/11/04 01:21:43;;;;;;;38.30;24.50;;;;;;;16.46;84.81;100156.28;4898497;29;20680;-83
2022/11/04 01:24:10;;;;;;;38.58;24.90;;;;;;;16.62;84.52;100153.41;4881215;29;20514;-83
2022/11/04 01:26:37;;;;;;;45.20;24.90;;;;;;;16.75;84.51;100173.34;4884740;29;20775;-85
2022/11/04 01:29:04;;;;;;;37.25;23.33;;;;;;;16.55;84.80;100155.16;4902349;29;20569;-85
2022/11/04 01:31:33;;;;;;;34.42;23.05;;;;;;;15.98;85.72;100059.44;4886789;29;20304;-84
2022/11/04 01:34:02;;;;;;;34.40;22.23;;;;;;;15.78;85.79;100019.00;4884810;29;20356;-83
2022/11/04 01:36:29;;;;;;;32.90;21.05;;;;;;;16.45;85.88;100134.00;4896481;29;20149;-84
2022/11/04 01:38:59;;;;;;;29.55;20.83;;;;;;;16.53;85.92;100137.59;4884140;29;20380;-83
2022/11/04 01:41:31;;;;;;;30.95;19.20;;;;;;;16.51;85.17;100137.00;4879561;29;20516;-83
2022/11/04 01:44:41;;;;;;;34.90;18.98;;;;;;;16.56;85.68;100121.19;4880604;29;20157;-82
2022/11/04 01:47:23;;;;;;;22.58;16.05;;;;;;;16.33;85.29;100060.50;4882420;29;20055;-79
2022/11/04 01:49:58;;;;;;;24.35;16.23;;;;;;;16.28;85.35;100046.84;4870893;29;20059;-84
2022/11/04 01:52:40;;;;;;;28.00;17.05;;;;;;;16.48;85.65;100056.97;4881620;29;20119;-80
2022/11/04 01:55:31;;;;;;;26.23;16.10;;;;;;;16.38;85.29;100036.69;4875882;29;20055;-81
2022/11/04 01:58:04;;;;;;;20.45;14.57;;;;;;;16.67;85.40;100091.19;4892027;29;20123;-82
2022/11/04 02:00:36;;;;;;;24.20;16.85;;;;;;;16.65;85.44;100086.06;4871783;29;20235;-82
2022/11/04 02:03:19;;;;;;;24.73;15.05;;;;;;;16.52;85.57;100060.94;4880768;29;20494;-82
2022/11/04 02:05:46;;;;;;;20.17;14.55;;;;;;;16.65;85.38;100087.88;4878271;29;20107;-83
2022/11/04 02:08:16;;;;;;;21.40;14.48;;;;;;;16.31;85.35;100042.97;4893096;29;20853;-82
2022/11/04 02:10:57;;;;;;;15.68;12.73;;;;;;;16.69;85.75;100094.53;4876741;29;20669;-82
2022/11/04 02:13:26;;;;;;;18.00;12.85;;;;;;;16.66;85.53;100076.16;4882515;29;20152;-82
2022/11/04 02:16:35;;;;;;;23.02;12.30;;;;;;;16.32;85.47;100021.34;4896281;29;20059;-83
2022/11/04 02:19:22;;;;;;;21.20;12.77;;;;;;;16.71;85.42;100071.06;4877298;29;20093;-82
2022/11/04 02:21:49;;;;;;;15.82;10.23;;;;;;;16.75;85.57;100063.44;4872530;29;20358;-83
2022/11/04 02:24:45;;;;;;;15.95;10.98;;;;;;;16.75;85.09;100061.63;4904146;28;20586;-81
2022/11/04 02:27:27;;;;;;;13.88;9.07;;;;;;;16.60;85.13;100024.16;4900672;29;20254;-82
2022/11/04 02:30:00;;;;;;;;;;;;;;;16.78;85.23;100037.13;4900474;29;20066;-82
2022/11/04 02:32:56;;;;;;;14.57;8.05;;;;;;;16.80;84.51;100035.09;4901168;28;19933;-80
2022/11/04 02:35:29;;;;;;;17.38;7.82;;;;;;;16.74;84.78;100019.75;4901604;29;20051;-81
2022/11/04 02:38:29;;;;;;;11.32;7.15;;;;;;;16.62;85.14;100010.53;4898705;29;20090;-83
2022/11/04 02:41:16;;;;;;;10.40;6.88;;;;;;;16.72;84.90;100023.63;4901958;29;20054;-81
2022/11/04 02:44:11;;;;;;;10.70;5.95;;;;;;;16.26;84.86;99924.84;4902508;29;20113;-81
2022/11/04 02:46:59;;;;;;;7.22;4.97;;;;;;;15.47;84.45;99800.63;4906565;28;20535;-81
2022/11/04 02:49:50;;;;;;;6.97;4.95;;;;;;;16.49;84.39;99957.66;4889489;29;20051;-82
2022/11/04 02:52:32;;;;;;;6.63;5.15;;;;;;;16.25;84.50;99913.31;4885279;29;20494;-81
2022/11/04 02:55:15;;;;;;;;;;;;;;;16.70;84.66;99999.72;4884517;29;20043;-81
2022/11/04 02:57:48;;;;;;;6.22;5.15;;;;;;;16.59;84.84;99963.53;4888412;29;20045;-83
2022/11/04 03:00:19;;;;;;;8.10;4.60;;;;;;;16.62;84.70;99938.19;4889170;29;20109;-83
2022/11/04 03:03:02;;;;;;;7.18;4.53;;;;;;;16.38;83.73;99894.72;4888825;29;20063;-83
2022/11/04 03:05:37;;;;;;;7.45;4.20;;;;;;;16.79;83.48;99954.88;4887025;29;20056;-82
2022/11/04 03:08:13;;;;;;;5.07;4.05;;;;;;;16.63;82.83;99943.38;4886847;29;20079;-83
2022/11/04 03:10:52;;;;;;;6.50;4.45;;;;;;;16.76;83.18;99937.28;4889677;29;20282;-82
2022/11/04 03:13:31;;;;;;;8.30;4.68;;;;;;;16.09;83.01;99827.88;4886666;29;20162;-83
2022/11/04 03:16:00;;;;;;;7.18;4.50;;;;;;;16.64;82.91;99928.94;4898524;29;20062;-83
2022/11/04 03:19:00;;;;;;;6.65;4.50;;;;;;;16.70;83.20;99947.94;4888411;29;20489;-82
2022/11/04 03:21:31;;;;;;;8.48;4.85;;;;;;;16.72;82.81;99940.56;4884818;29;20056;-82
2022/11/04 03:24:00;;;;;;;6.22;3.42;;;;;;;16.52;82.67;99917.06;4884564;29;20199;-82
2022/11/04 03:26:54;;;;;;;9.20;5.18;;;;;;;16.73;82.70;99948.41;4887049;29;20051;-82
2022/11/04 03:29:35;;;;;;;7.28;4.50;;;;;;;16.67;83.17;99950.00;4884893;29;20063;-82
2022/11/04 03:32:12;;;;;;;9.13;4.13;;;;;;;16.65;83.32;99945.84;4886253;29;20052;-83
2022/11/04 03:34:42;;;;;;;6.82;5.00;;;;;;;16.44;83.56;99918.03;4883962;29;20244;-83
2022/11/04 03:37:09;;;;;;;7.50;4.93;;;;;;;16.56;83.31;99933.63;4883754;29;20094;-82
2022/11/04 03:39:36;;;;;;;12.30;6.03;;;;;;;16.62;83.37;99935.50;4900483;29;20146;-82
2022/11/04 03:42:18;;;;;;;6.43;5.30;;;;;;;16.63;84.19;99934.50;4885424;29;20165;-82
2022/11/04 03:44:56;;;;;;;8.75;5.53;;;;;;;16.64;83.59;99933.47;4884910;29;20142;-82
2022/11/04 03:47:32;;;;;;;8.57;5.28;;;;;;;16.06;84.18;99844.31;4884060;29;20410;-82
2022/11/04 03:50:11;;;;;;;6.53;5.18;;;;;;;16.27;83.94;99889.84;4883891;29;20298;-83
2022/11/04 03:52:41;;;;;;;10.27;5.18;;;;;;;16.48;83.90;99917.66;4867872;29;20063;-82
2022/11/04 03:55:11;;;;;;;7.40;4.28;;;;;;;16.34;83.33;99890.75;4884662;29;20380;-80
2022/11/04 03:58:02;;;;;;;8.63;3.25;;;;;;;16.66;82.50;99920.72;4884867;29;20048;-81
2022/11/04 04:00:38;;;;;;;6.93;3.35;;;;;;;16.54;81.34;99879.38;4887444;29;20521;-83
2022/11/04 04:03:04;;;;;;;8.13;3.22;;;;;;;16.93;80.17;99910.25;4884056;29;20060;-81
2022/11/04 04:05:54;;;;;;;6.55;3.85;;;;;;;17.08;78.99;99905.59;4881580;29;20060;-83
2022/11/04 04:08:39;;;;;;;6.68;3.35;;;;;;;17.13;78.21;99900.47;4880707;29;20073;-83
2022/11/04 04:11:21;;;;;;;10.35;3.50;;;;;;;16.93;77.09;99848.59;4867501;29;20084;-83
2022/11/04 04:14:02;;;;;;;5.68;3.55;;;;;;;17.52;76.17;99926.75;4882128;29;20574;-81
2022/11/04 04:16:44;;;;;;;5.10;3.72;;;;;;;17.45;76.21;99916.97;4878044;29;20453;-82
2022/11/04 04:19:22;;;;;;;7.72;3.40;;;;;;;17.25;75.29;99872.09;4874897;29;20175;-80
2022/11/04 04:22:00;;;;;;;9.88;3.97;;;;;;;17.63;75.24;99906.56;4881317;29;20055;-82
2022/11/04 04:27:31;;;;;;;7.43;3.58;;;;;;;16.82;73.08;99734.69;4882725;29;20079;-82
2022/11/04 04:30:03;;;;;;;8.55;4.15;;;;;;;17.84;72.95;99880.63;4881310;29;20403;-81
2022/11/04 04:32:42;;;;;;;8.27;3.53;;;;;;;18.10;71.40;99890.63;4883969;29;20170;-80
2022/11/04 04:46:37;;;;;;;8.77;3.92;;;;;;;18.06;70.50;99828.47;4885959;29;20052;-83
2022/11/04 04:49:05;;;;;;;7.78;4.10;;;;;;;18.27;70.01;99848.91;4881605;29;20050;-83
2022/11/04 04:51:35;;;;;;;8.88;3.70;;;;;;;17.84;70.78;99787.53;4884379;29;20060;-83
2022/11/04 04:54:01;;;;;;;9.05;3.80;;;;;;;17.75;70.30;99780.66;4886523;29;20060;-81
2022/11/04 04:56:31;;;;;;;8.73;3.58;;;;;;;17.08;70.19;99661.59;4885300;29;20055;-82
2022/11/04 04:59:01;;;;;;;7.13;3.55;;;;;;;18.13;69.34;99815.00;4883830;29;20134;-80
2022/11/04 05:01:28;;;;;;;8.25;3.92;;;;;;;18.42;69.25;99850.59;4883292;29;20087;-82
2022/11/04 05:04:00;;;;;;;12.25;3.88;;;;;;;18.34;68.70;99827.44;4886863;29;20577;-82
2022/11/04 05:06:27;;;;;;;7.93;3.85;;;;;;;17.68;69.14;99734.19;4886250;29;20058;-81
2022/11/04 05:08:54;;;;;;;6.72;3.53;;;;;;;18.44;69.10;99846.66;4899813;29;20058;-83
2022/11/04 05:11:21;;;;;;;9.88;4.38;;;;;;;18.32;69.49;99848.31;4886770;29;20690;-81
2022/11/04 05:13:52;;;;;;;7.55;3.38;;;;;;;18.25;69.40;99834.03;4885125;29;20083;-83
2022/11/04 05:16:19;;;;;;;8.68;3.80;;;;;;;18.21;69.62;99838.19;4884521;29;20054;-82
2022/11/04 05:18:46;;;;;;;11.20;3.95;;;;;;;17.96;69.78;99803.84;4887454;29;20063;-85
2022/11/04 05:21:14;;;;;;;9.02;3.50;;;;;;;17.17;68.32;99646.16;4883558;29;20051;-80
2022/11/04 05:23:41;;;;;;;11.80;3.72;;;;;;;18.26;68.76;99831.16;4885780;29;20055;-82
2022/11/04 05:26:08;;;;;;;8.52;3.75;;;;;;;18.21;67.81;99822.06;4883070;29;20194;-82
2022/11/04 05:28:34;;;;;;;6.07;3.55;;;;;;;18.42;68.44;99855.97;4881518;29;20171;-82
2022/11/04 05:31:05;;;;;;;6.30;3.15;;;;;;;18.41;68.04;99849.78;4882170;29;20148;-83
2022/11/04 05:33:32;;;;;;;12.32;4.20;;;;;;;18.14;68.46;99828.25;4882381;29;20114;-83
2022/11/04 05:36:12;;;;;;;8.18;4.07;;;;;;;17.79;68.26;99775.69;4883596;29;20061;-83
2022/11/04 05:38:42;;;;;;;5.85;3.33;;;;;;;17.85;67.25;99740.84;4884243;29;20497;-83
2022/11/04 05:41:11;;;;;;;6.68;3.75;;;;;;;18.10;67.55;99794.75;4884819;29;20079;-83
2022/11/04 05:43:37;;;;;;;8.07;3.53;;;;;;;18.13;68.18;99820.38;4882327;29;20047;-84
2022/11/04 05:46:08;;;;;;;4.35;3.10;;;;;;;18.21;68.49;99836.31;4884465;29;20127;-83
2022/11/04 05:48:35;;;;;;;7.47;3.53;;;;;;;18.39;68.16;99851.00;4877524;29;20453;-83
2022/11/04 05:51:07;;;;;;;7.93;3.67;;;;;;;17.77;68.72;99761.63;4884486;29;20547;-83
2022/11/04 05:53:36;;;;;;;8.48;3.40;;;;;;;18.23;69.61;99844.16;4884623;29;20378;-84
2022/11/04 05:56:07;;;;;;;6.72;3.33;;;;;;;18.11;68.84;99817.91;4881604;29;20052;-82
2022/11/04 05:58:34;;;;;;;8.98;3.85;;;;;;;18.06;71.86;99825.78;4897994;29;20058;-85
2022/11/04 06:01:24;;;;;;;8.77;3.50;;;;;;;17.65;73.68;99783.72;4882441;29;20569;-81
2022/11/04 06:03:53;;;;;;;14.73;13.23;;;;;;;17.82;74.73;99845.13;4877311;29;20056;-84
2022/11/04 06:06:28;;;;;;;13.85;8.90;;;;;;;16.59;75.02;99657.25;4901604;29;20063;-83
2022/11/04 06:08:57;;;;;;;8.90;5.72;;;;;;;17.55;74.50;99822.69;4917777;28;20138;-83
2022/11/04 06:11:25;;;;;;;7.05;4.47;;;;;;;16.81;73.27;99704.38;4891744;29;20142;-83
2022/11/04 06:13:56;;;;;;;16.83;7.85;;;;;;;17.86;72.47;99863.28;4887184;29;20589;-81
2022/11/04 06:16:28;;;;;;;27.40;12.48;;;;;;;17.08;72.57;99763.47;4883603;29;20581;-82
2022/11/04 06:18:55;;;;;;;44.75;26.63;;;;;;;17.67;72.23;99864.88;4891074;29;20453;-83
2022/11/04 06:21:32;;;;;;;58.50;32.42;;;;;;;17.44;72.54;99869.72;4908417;28;20493;-82
2022/11/04 06:23:59;;;;;;;76.78;37.70;;;;;;;17.27;73.17;99880.75;4906935;29;20055;-82
2022/11/04 06:26:29;;;;;;;80.75;40.55;;;;;;;16.86;73.58;99846.69;4902149;28;20051;-83
2022/11/04 06:28:56;;;;;;;97.22;48.22;;;;;;;16.82;72.83;99844.56;4890978;29;20056;-82
2022/11/04 06:31:26;;;;;;;101.38;47.28;;;;;;;16.93;73.28;99902.22;4887505;29;20086;-83
2022/11/04 06:33:53;;;;;;;100.32;44.42;;;;;;;16.58;75.47;99928.91;4923533;29;20055;-83
2022/11/04 06:36:20;;;;;;;97.72;47.67;;;;;;;16.36;76.20;99934.25;4903197;28;20762;-84
2022/11/04 06:38:47;;;;;;;91.13;45.38;;;;;;;16.40;77.06;99970.34;4908668;29;20257;-81
2022/11/04 06:41:15;;;;;;;85.93;42.65;;;;;;;16.37;77.36;99986.78;4889529;29;20055;-82
2022/11/04 06:43:43;;;;;;;82.20;43.90;;;;;;;15.79;79.00;99977.84;4868684;29;20056;-82
2022/11/04 06:46:42;;;;;;;82.88;42.50;;;;;;;15.47;79.48;99947.75;4866479;29;20056;-83
2022/11/04 06:49:18;;;;;;;88.38;43.42;;;;;;;16.17;78.81;100064.22;4859118;29;20171;-80
2022/11/04 06:51:46;;;;;;;77.45;39.90;;;;;;;15.95;79.34;100047.25;4888417;29;20056;-84
2022/11/04 06:54:14;;;;;;;79.85;42.63;;;;;;;16.04;79.14;100058.69;4885832;29;20545;-82
2022/11/04 06:56:41;;;;;;;86.47;40.75;;;;;;;14.86;79.06;99885.56;4871173;29;20052;-82
2022/11/04 06:59:14;;;;;;;79.68;39.03;;;;;;;16.23;79.26;100114.34;4891349;29;20537;-81
2022/11/04 07:01:41;;;;;;;81.65;40.72;;;;;;;16.05;79.98;100139.84;4903548;28;20579;-83
2022/11/04 07:04:08;;;;;;;67.75;37.70;;;;;;;16.26;79.14;100163.22;4923919;28;20510;-82
2022/11/04 07:06:35;;;;;;;32.60;17.17;;;;;;;16.04;74.94;100125.59;4902952;28;20225;-81
2022/11/04 07:09:14;;;;;;;20.20;9.85;;;;;;;14.97;72.75;100029.41;4896218;29;20650;-84
2022/11/04 07:11:42;;;;;;;7.93;3.63;;;;;;;15.42;70.47;100169.47;4904268;29;20454;-80
2022/11/04 07:14:10;;;;;;;8.95;2.47;;;;;;;15.15;70.95;100157.47;4886829;29;20132;-84
2022/11/04 07:16:36;;;;;;;6.40;2.60;;;;;;;14.17;73.42;100070.56;4910619;29;20048;-79
2022/11/04 07:19:04;;;;;;;9.07;2.22;;;;;;;14.32;73.44;100089.38;4897758;29;20150;-84
2022/11/04 07:21:31;;;;;;;2.15;1.38;;;;;;;14.38;73.90;100102.03;4903764;29;20099;-85
2022/11/04 07:24:01;;;;;;;2.55;1.30;;;;;;;14.89;73.13;100200.53;4940042;28;20098;-80
2022/11/04 07:26:31;;;;;;;6.50;1.60;;;;;;;14.60;73.30;100159.22;4924123;29;20047;-79
2022/11/04 07:29:10;;;;;;;3.25;1.35;;;;;;;14.60;74.53;100204.66;4931872;28;20062;-84
2022/11/04 07:31:38;;;;;;;2.25;1.25;;;;;;;14.28;74.76;100166.31;4934367;28;20166;-83
2022/11/04 07:34:11;;;;;;;4.97;1.33;;;;;;;14.21;75.42;100160.00;4899376;29;20111;-86
2022/11/04 07:36:42;;;;;;;5.18;1.30;;;;;;;13.82;76.27;100110.03;4897434;29;20277;-85
2022/11/04 07:39:09;;;;;;;4.95;1.17;;;;;;;14.21;76.28;100164.50;4929715;29;20054;-82
2022/11/04 07:41:36;;;;;;;3.45;1.60;;;;;;;14.46;76.25;100205.31;4896046;29;20602;-82
2022/11/04 07:44:04;;;;;;;8.30;1.20;;;;;;;14.58;74.78;100176.44;4887692;29;20631;-82
2022/11/04 07:46:33;;;;;;;4.72;1.30;;;;;;;14.56;74.75;100184.63;4889631;29;20062;-85
2022/11/04 07:49:00;;;;;;;2.20;1.17;;;;;;;14.65;74.26;100185.44;4887372;29;20627;-83
2022/11/04 07:51:27;;;;;;;3.08;1.15;;;;;;;14.51;75.09;100181.59;4885794;29;20056;-83
2022/11/04 07:53:54;;;;;;;1.88;0.88;;;;;;;13.53;74.38;100011.91;4901488;29;20233;-82
2022/11/04 07:56:25;;;;;;;1.60;0.98;;;;;;;14.19;73.35;100103.28;4886678;29;20051;-84
2022/11/04 07:58:53;;;;;;;2.50;0.63;;;;;;;14.74;72.99;100189.75;4878290;29;20055;-83
2022/11/04 08:01:22;;;;;;;1.38;0.70;;;;;;;14.52;72.65;100146.72;4875839;29;20055;-84
2022/11/04 08:03:50;;;;;;;1.35;0.73;;;;;;;14.74;72.59;100179.88;4884626;29;20052;-83
2022/11/04 08:06:20;;;;;;;3.15;0.77;;;;;;;14.50;72.43;100138.03;4877122;29;20623;-83
2022/11/04 08:08:47;;;;;;;1.65;0.80;;;;;;;14.92;71.12;100187.63;4867001;29;20205;-83
2022/11/04 08:11:19;;;;;;;1.60;0.70;;;;;;;14.16;71.56;100087.59;4897578;29;20051;-83
2022/11/04 08:13:49;;;;;;;1.70;0.75;;;;;;;13.31;71.21;99928.16;4901382;28;20051;-83
2022/11/04 08:16:21;;;;;;;7.93;0.98;;;;;;;14.86;70.34;100163.47;4899417;29;20062;-83
2022/11/04 08:18:51;;;;;;;2.92;1.00;;;;;;;14.46;69.42;100088.63;4881515;29;20415;-79
2022/11/04 08:21:19;;;;;;;2.28;0.82;;;;;;;14.97;68.98;100147.03;4887811;28;20070;-79
2022/11/04 08:23:47;;;;;;;3.13;1.10;;;;;;;14.96;69.73;100143.53;4884068;29;20170;-80
2022/11/04 08:26:22;;;;;;;1.73;0.70;;;;;;;15.10;68.77;100144.63;4888415;29;20047;-82
2022/11/04 08:28:52;;;;;;;1.45;1.00;;;;;;;14.92;68.81;100120.81;4882493;29;20047;-79
2022/11/04 08:31:25;;;;;;;0.93;0.55;;;;;;;14.83;68.00;100089.84;4885591;29;20107;-80
2022/11/04 08:33:54;;;;;;;0.70;0.68;;;;;;;15.30;66.93;100133.47;4882373;29;20048;-80
2022/11/04 08:36:24;;;;;;;2.45;0.82;;;;;;;15.32;66.71;100126.09;4879441;29;20155;-81
2022/11/04 08:38:52;;;;;;;2.20;0.80;;;;;;;15.34;67.08;100127.56;4882840;29;20479;-81
2022/11/04 08:41:22;;;;;;;3.13;1.15;;;;;;;15.27;66.17;100107.91;4892183;29;20374;-81
2022/11/04 08:43:50;;;;;;;1.75;0.70;;;;;;;15.31;65.54;100095.81;4900974;29;20166;-80
2022/11/04 08:46:21;;;;;;;1.08;0.60;;;;;;;15.49;66.16;100126.78;4901360;29;20051;-80
2022/11/04 08:48:48;;;;;;;1.80;1.00;;;;;;;15.31;66.35;100103.84;4897341;29;20063;-81
2022/11/04 08:51:22;;;;;;;1.27;0.55;;;;;;;15.09;65.75;100041.34;4898447;29;20901;-81
2022/11/04 08:53:49;;;;;;;1.73;0.70;;;;;;;15.54;67.01;100122.56;4896141;29;20055;-80
2022/11/04 08:56:19;;;;;;;3.17;1.00;;;;;;;15.55;64.46;100097.44;4886321;29;20119;-81
2022/11/04 08:58:49;;;;;;;5.63;0.80;;;;;;;15.66;64.75;100106.91;4887337;29;20081;-80
2022/11/04 09:01:19;;;;;;;1.95;0.98;;;;;;;15.64;65.43;100108.09;4902605;29;20488;-80
2022/11/04 09:03:47;;;;;;;2.28;1.00;;;;;;;15.50;64.01;100058.88;4902464;29;20661;-80
2022/11/04 09:06:20;;;;;;;1.58;0.90;;;;;;;15.92;61.64;100098.50;4882982;29;20163;-81
2022/11/04 09:08:47;;;;;;;3.50;0.73;;;;;;;15.80;62.87;100068.66;4883323;29;20055;-80
2022/11/04 09:11:16;;;;;;;1.38;1.00;;;;;;;15.98;62.11;100073.66;4874914;29;20056;-81
2022/11/04 09:13:44;;;;;;;3.60;0.90;;;;;;;16.18;62.27;100083.78;4912172;29;20137;-81
2022/11/04 09:16:12;;;;;;;1.30;0.77;;;;;;;16.34;62.64;100115.75;4884653;29;20059;-82
2022/11/04 09:18:39;;;;;;;0.88;0.70;;;;;;;16.53;62.01;100113.50;4884027;29;20066;-79
2022/11/04 09:21:09;;;;;;;1.60;0.70;;;;;;;16.56;61.70;100079.13;4873533;29;20376;-80
2022/11/04 09:23:37;;;;;;;1.30;0.65;;;;;;;16.85;61.95;100107.75;4881347;29;20044;-81
2022/11/04 09:26:13;;;;;;;1.70;0.57;;;;;;;17.09;59.10;100114.59;4862390;29;20058;-81
2022/11/04 09:28:40;;;;;;;;;;;;;;;17.08;59.12;100112.91;4872442;29;20571;-83
2022/11/04 09:31:14;;;;;;;3.85;0.80;;;;;;;17.17;57.85;100092.19;4888509;29;19926;-80
2022/11/04 09:33:43;;;;;;;2.88;0.50;;;;;;;17.33;58.92;100109.03;4884559;29;20231;-81
2022/11/04 09:36:13;;;;;;;1.13;0.60;;;;;;;17.46;58.58;100093.06;4886959;29;20055;-81
2022/11/04 09:38:41;;;;;;;0.47;0.40;;;;;;;17.08;56.65;100011.00;4888224;29;20142;-83
2022/11/04 09:41:41;;;;;;;0.80;0.43;;;;;;;17.70;56.38;100095.31;4880267;29;20056;-81
2022/11/04 09:44:49;;;;;;;3.45;0.68;;;;;;;17.75;57.38;100097.41;4884046;29;20056;-80
2022/11/04 09:47:43;;;;;;;1.83;0.45;;;;;;;17.88;57.14;100091.34;4868560;29;20420;-80
2022/11/04 09:50:19;;;;;;;1.20;0.75;;;;;;;18.17;54.56;100110.94;4880616;29;20437;-84
2022/11/04 09:52:54;;;;;;;1.35;0.45;;;;;;;18.24;54.24;100088.44;4900978;29;20644;-80
2022/11/04 09:55:39;;;;;;;0.40;0.40;;;;;;;18.18;54.41;100080.34;4886366;29;20060;-83
2022/11/04 09:58:11;;;;;;;0.40;0.40;;;;;;;18.09;55.29;100055.53;4887221;29;20052;-84
2022/11/04 10:00:40;;;;;;;0.75;0.40;;;;;;;18.40;55.70;100092.66;4883590;29;20055;-81
2022/11/04 10:03:45;;;;;;;0.43;0.35;;;;;;;18.63;53.19;100089.63;4892180;29;20072;-83
2022/11/04 10:06:36;;;;;;;0.75;0.30;;;;;;;18.72;53.62;100095.69;4858100;29;20609;-82
2022/11/04 10:09:14;;;;;;;1.30;0.50;;;;;;;18.73;53.92;100089.25;4893523;29;20060;-82
2022/11/04 10:12:04;;;;;;;2.85;0.70;;;;;;;19.03;52.28;100081.72;4894946;29;20621;-80
2022/11/04 10:14:58;;;;;;;1.75;0.77;;;;;;;18.95;53.79;100063.91;4895080;28;20127;-81
2022/11/04 10:17:35;;;;;;;1.23;0.80;;;;;;;19.29;53.14;100083.59;4894635;29;20060;-83
2022/11/04 10:20:41;;;;;;;1.13;0.70;;;;;;;19.37;52.55;100064.56;4863218;29;20064;-82
2022/11/04 10:23:34;;;;;;;3.40;0.85;;;;;;;19.68;51.30;100068.50;4811979;29;20153;-81
2022/11/04 10:26:40;;;;;;;1.67;0.70;;;;;;;19.82;51.25;100062.06;4861477;29;20219;-83
2022/11/04 10:29:25;;;;;;;1.50;0.70;;;;;;;19.06;50.52;99937.91;4807824;29;20084;-81
2022/11/04 10:32:02;;;;;;;5.13;1.05;;;;;;;19.90;50.74;100035.94;4819388;29;20071;-82
2022/11/04 10:34:47;;;;;;;3.28;0.95;;;;;;;19.94;51.21;100037.19;4859181;29;20378;-84
2022/11/04 10:37:19;;;;;;;3.28;0.80;;;;;;;20.18;50.64;100044.56;4859988;29;20407;-82
2022/11/04 10:39:47;;;;;;;2.55;0.85;;;;;;;19.91;50.10;99994.50;4861238;29;20083;-82
2022/11/04 10:42:21;;;;;;;2.22;1.08;;;;;;;20.35;48.37;100033.31;4865617;29;20508;-82
2022/11/04 10:44:50;;;;;;;1.77;0.80;;;;;;;19.51;49.09;99897.66;4866738;29;20187;-81
2022/11/04 10:47:32;;;;;;;1.92;0.80;;;;;;;19.62;49.72;99899.69;4880920;29;20082;-83
2022/11/04 10:50:06;;;;;;;2.50;0.80;;;;;;;20.54;49.29;100015.38;4880748;29;20051;-81
2022/11/04 10:53:14;;;;;;;3.00;0.85;;;;;;;20.62;49.40;100017.84;4899980;29;20153;-85
2022/11/04 10:56:00;;;;;;;2.75;0.63;;;;;;;20.76;47.78;100026.69;4899694;29;20278;-83
2022/11/04 10:58:31;;;;;;;4.90;0.73;;;;;;;19.80;46.68;99901.72;4882945;29;20662;-82
2022/11/04 11:01:23;;;;;;;2.80;0.53;;;;;;;20.14;48.24;100029.03;4880811;29;20517;-81
2022/11/04 11:03:51;;;;;;;1.08;0.60;;;;;;;19.60;49.96;99974.47;4913609;28;20583;-80
2022/11/04 11:06:34;;;;;;;2.00;0.52;;;;;;;19.65;49.98;100001.59;4905623;29;20067;-82
2022/11/04 11:09:28;;;;;;;2.90;0.60;;;;;;;19.38;50.76;99958.56;4898408;29;20074;-84
2022/11/04 11:11:59;;;;;;;2.92;1.17;;;;;;;19.68;50.75;100028.13;4886012;29;20363;-82
2022/11/04 11:14:31;;;;;;;2.92;0.77;;;;;;;19.46;50.52;99975.53;4883422;29;20162;-82
2022/11/04 11:17:17;;;;;;;;;;;;;;;19.66;50.61;100022.09;4871051;29;20451;-82
2022/11/04 11:19:52;;;;;;;0.90;0.40;;;;;;;19.53;49.19;99990.63;4888575;29;20001;-82
2022/11/04 11:22:34;;;;;;;1.73;0.40;;;;;;;19.55;49.60;100028.94;4906756;29;20313;-82
2022/11/04 11:25:24;;;;;;;4.40;0.70;;;;;;;19.48;48.52;100024.59;4906606;28;20051;-82
2022/11/04 11:28:05;;;;;;;1.83;0.60;;;;;;;19.04;48.78;99951.56;4906080;28;20059;-83
2022/11/04 11:30:40;;;;;;;1.00;0.60;;;;;;;19.60;48.48;100023.75;4903008;29;20055;-82
2022/11/04 11:33:33;;;;;;;2.60;0.70;;;;;;;19.30;49.38;100014.47;4905884;29;20063;-82
2022/11/04 11:36:29;;;;;;;0.68;0.50;;;;;;;19.36;49.64;100011.75;4908154;28;20055;-83
2022/11/04 11:39:15;;;;;;;2.38;0.80;;;;;;;19.33;49.20;100004.13;4918057;28;20500;-85
2022/11/04 11:41:53;;;;;;;1.33;0.65;;;;;;;18.17;48.54;99812.75;4904558;28;20413;-83
2022/11/04 11:44:23;;;;;;;1.13;0.75;;;;;;;19.37;48.92;99999.97;4900538;29;20055;-82
2022/11/04 11:46:56;;;;;;;2.40;0.85;;;;;;;18.90;49.33;99948.03;4902239;29;20062;-82
2022/11/04 11:49:34;;;;;;;0.93;0.82;;;;;;;18.56;50.53;99914.06;4870876;29;20086;-81
2022/11/04 11:52:33;;;;;;;1.08;0.70;;;;;;;19.15;49.54;100002.06;4883221;29;20066;-84
2022/11/04 11:55:10;;;;;;;2.03;0.90;;;;;;;19.09;50.26;99996.66;4899682;29;20063;-82
2022/11/04 11:58:07;;;;;;;0.73;0.40;;;;;;;19.10;50.01;99987.56;4885105;29;20260;-82
2022/11/04 12:01:12;;;;;;;1.30;0.70;;;;;;;18.80;49.69;99926.13;4894276;29;20062;-82
2022/11/04 12:03:51;;;;;;;2.33;1.05;;;;;;;19.18;49.77;99990.06;4882842;29;20079;-82
2022/11/04 12:07:16;;;;;;;2.03;1.00;;;;;;;19.17;49.44;99983.00;4891698;29;20553;-80
2022/11/04 12:10:31;;;;;;;3.53;0.90;;;;;;;19.03;50.42;99971.44;4885614;28;20055;-81
2022/11/04 12:13:17;;;;;;;1.77;0.77;;;;;;;18.96;50.30;99949.91;4894565;29;20543;-82
2022/11/04 12:16:20;;;;;;;1.35;0.60;;;;;;;19.05;50.65;99971.22;4885715;29;20162;-81
2022/11/04 12:18:49;;;;;;;2.28;0.60;;;;;;;19.03;50.56;99954.44;4889207;29;20094;-80
2022/11/04 12:21:25;;;;;;;3.15;0.95;;;;;;;18.96;51.09;99957.97;4902054;29;20133;-79
2022/11/04 12:24:07;;;;;;;0.80;0.65;;;;;;;18.87;49.58;99900.06;4901777;29;20133;-80
2022/11/04 12:27:12;;;;;;;3.35;0.80;;;;;;;19.17;49.65;99956.09;4900139;28;20063;-82
2022/11/04 12:29:58;;;;;;;2.38;0.60;;;;;;;19.32;49.02;99948.66;4900867;29;20055;-82
2022/11/04 12:32:25;;;;;;;1.20;0.73;;;;;;;19.32;49.23;99958.56;4899006;29;20058;-80
2022/11/04 12:35:30;;;;;;;1.67;0.75;;;;;;;19.15;49.67;99942.88;4899374;29;20051;-82